Terminal Aerodrome Forecast
Issued by NWS

Current Version | Previous Version | Graphics & Text | Print | Product List | Glossary On
Versions: 1 2 3 4 5 6 7 8 9 10 11 12 13 14 15 16 17 18
000
FTUS41 KPBZ 281916 AAA
TAFHLG
TAF AMD
KHLG 281916Z 2819/2918 33010KT P6SM OVC010
     FM290200 34009KT P6SM BKN003
     FM290900 35005KT P6SM BKN015
     FM291700 36006KT P6SM FEW110=

USA.gov is the U.S. government's official web portal to all federal, state and local government web resources and services.